Terminal Aerodrome Forecast
Issued by NWS North Platte, NE

Home | Current Version | Previous Version | Text Only | Print | Product List | Glossary On
Versions: 1 2 3 4 5 6 7 8 9 10 11 12 13 14 15 16
781
FTUS43 KLBF 172320
TAFVTN
TAF
KVTN 172320Z 1800/1824 16011KT P6SM SCT250
     FM180900 18007KT P6SM BKN200
     FM181000 19006KT P6SM SCT200
     FM181500 22007KT P6SM FEW250=

USA.gov is the U.S. government's official web portal to all federal, state and local government web resources and services.